Time;durP1;ratioP1;P1;durP2;ratioP2;P2;SDS_P1;SDS_P2;PMS_P1;PMS_P2;Temp;Humidity;BMP_temperature;BMP_pressure;BME280_temperature;BME280_humidity;BME280_pressure;Samples;Min_cycle;Max_cycle;Signal;HPM_P1;HPM_P2
2023/11/14 00:05:46;;;;;;;24.90;14.10;;;;;;;5.62;100.00;98742.91;224036;1265;138932;-90
2023/11/14 00:11:47;;;;;;;25.50;14.50;;;;;;;5.71;100.00;98730.70;223597;1265;141332;-92
2023/11/14 00:17:41;;;;;;;28.00;15.70;;;;;;;5.81;100.00;98732.63;224297;1265;139062;-90
2023/11/14 00:23:43;;;;;;;26.80;15.80;;;;;;;5.88;100.00;98720.70;224120;1265;139922;-91
2023/11/14 00:29:44;;;;;;;28.80;17.80;;;;;;;5.98;100.00;98725.19;223732;1265;140971;-92
2023/11/14 00:35:46;;;;;;;27.70;17.50;;;;;;;6.08;100.00;98720.73;224202;1266;139762;-95
2023/11/14 00:47:41;;;;;;;35.60;19.30;;;;;;;6.32;100.00;98730.29;224352;1265;139659;-91
2023/11/14 00:53:40;;;;;;;30.70;18.10;;;;;;;6.44;100.00;98724.75;224348;1264;139094;-95
2023/11/14 00:59:01;;;;;;;36.20;19.00;;;;;;;6.57;100.00;98731.15;223780;1265;141154;-95
2023/11/14 01:05:03;;;;;;;26.80;17.20;;;;;;;6.69;100.00;98737.25;224369;1266;137748;-95
2023/11/14 01:11:06;;;;;;;28.60;16.50;;;;;;;6.81;100.00;98739.11;223730;1265;142506;-92
2023/11/14 01:17:07;;;;;;;34.10;18.60;;;;;;;6.95;100.00;98736.83;224373;1268;139485;-93
2023/11/14 01:23:08;;;;;;;26.20;16.60;;;;;;;7.11;100.00;98731.39;223754;1265;139703;-94
2023/11/14 01:29:09;;;;;;;29.60;17.10;;;;;;;7.25;100.00;98717.44;223876;1268;140850;-93
2023/11/14 01:35:15;;;;;;;27.40;15.60;;;;;;;7.40;100.00;98711.14;224460;1265;139734;-92
2023/11/14 01:41:16;;;;;;;27.10;15.40;;;;;;;7.52;100.00;98711.72;223716;1266;141181;-94
2023/11/14 01:53:18;;;;;;;23.80;12.50;;;;;;;7.76;100.00;98715.89;224395;1265;139035;-91
2023/11/14 02:05:41;;;;;;;26.30;12.10;;;;;;;7.94;100.00;98738.80;224156;1265;138760;-93
2023/11/14 02:11:18;;;;;;;21.10;10.70;;;;;;;7.99;100.00;98750.91;223623;1265;140814;-95
2023/11/14 02:17:28;;;;;;;23.60;11.10;;;;;;;8.02;100.00;98755.89;224101;1265;139324;-91
2023/11/14 02:23:21;;;;;;;;;;;;;;;;;;;;;
2023/11/14 02:29:31;;;;;;;20.50;9.20;;;;;;;8.07;100.00;98762.67;223654;1266;140877;-90
2023/11/14 02:35:33;;;;;;;22.20;8.80;;;;;;;8.09;100.00;98760.15;223948;1265;138633;-96
2023/11/14 02:41:33;;;;;;;18.00;7.40;;;;;;;8.12;100.00;98756.70;223861;1265;140942;-92
2023/11/14 02:47:34;;;;;;;17.80;7.50;;;;;;;8.15;100.00;98753.32;224233;1265;139049;-95
2023/11/14 02:53:36;;;;;;;16.90;7.70;;;;;;;8.15;100.00;98761.69;224297;1268;138620;-94
2023/11/14 02:59:37;;;;;;;14.80;6.40;;;;;;;8.15;100.00;98761.39;223436;1268;140887;-93
2023/11/14 03:10:45;;;;;;;;;;;;;;;;;;;;;
2023/11/14 03:16:43;;;;;;;17.70;5.50;;;;;;;8.12;100.00;98780.80;224023;1265;139150;-92
2023/11/14 03:22:37;;;;;;;16.40;5.90;;;;;;;8.11;100.00;98788.02;223332;1265;140592;-90
2023/11/14 03:28:33;;;;;;;21.40;4.80;;;;;;;8.10;100.00;98790.52;223466;1265;140748;-91
2023/11/14 03:34:23;;;;;;;16.30;4.80;;;;;;;8.09;100.00;98794.20;224004;1265;138633;-90
2023/11/14 03:40:24;;;;;;;18.30;4.40;;;;;;;8.08;100.00;98797.58;223484;1265;141077;-92
2023/11/14 03:46:24;;;;;;;;;;;;;;;;;;;;;
2023/11/14 03:52:26;;;;;;;22.10;4.40;;;;;;;8.10;100.00;98804.77;223381;1266;140397;-90
2023/11/14 04:04:21;;;;;;;16.80;3.90;;;;;;;8.20;100.00;98815.94;223959;1268;139515;-89
2023/11/14 04:10:12;;;;;;;15.00;4.30;;;;;;;8.23;100.00;98823.36;223664;1265;140523;-91
2023/11/14 04:16:15;;;;;;;24.20;3.90;;;;;;;8.22;100.00;98827.27;224125;1264;139912;-92
2023/11/14 04:22:17;;;;;;;15.60;3.80;;;;;;;8.21;100.00;98832.69;223550;1265;140647;-92
2023/11/14 04:28:16;;;;;;;18.00;3.70;;;;;;;8.21;100.00;98833.79;223380;1265;141164;-89
2023/11/14 04:34:17;;;;;;;21.40;4.00;;;;;;;8.20;100.00;98845.91;224082;1268;139137;-92
2023/11/14 04:40:17;;;;;;;18.10;3.80;;;;;;;8.22;100.00;98850.77;223701;1265;141902;-93
2023/11/14 04:46:12;;;;;;;14.60;3.70;;;;;;;8.25;100.00;98851.46;223900;1265;139227;-89
2023/11/14 04:52:11;;;;;;;22.10;4.00;;;;;;;8.30;100.00;98861.31;223505;1265;140852;-91
2023/11/14 04:58:12;;;;;;;14.90;3.70;;;;;;;8.37;100.00;98856.25;223456;1265;141082;-91
2023/11/14 05:04:13;;;;;;;22.80;4.10;;;;;;;8.42;100.00;98856.08;223895;1265;138835;-90
2023/11/14 05:10:14;;;;;;;16.60;4.40;;;;;;;8.48;100.00;98858.15;223383;1265;140729;-91
2023/11/14 05:16:16;;;;;;;17.80;4.00;;;;;;;8.53;100.00;98861.65;224016;1265;139311;-91
2023/11/14 05:22:18;;;;;;;15.60;3.50;;;;;;;8.58;100.00;98861.92;223490;1265;140688;-93
2023/11/14 05:28:19;;;;;;;20.60;4.90;;;;;;;8.63;100.00;98862.91;223503;1266;141323;-87
2023/11/14 05:34:18;;;;;;;13.80;3.50;;;;;;;8.67;100.00;98852.54;224206;1268;139259;-88
2023/11/14 05:40:20;;;;;;;19.50;3.90;;;;;;;8.70;100.00;98850.97;223473;1265;141283;-90
2023/11/14 05:46:05;;;;;;;15.10;4.00;;;;;;;8.73;100.00;98853.05;224009;1266;139836;-91
2023/11/14 05:51:47;;;;;;;;;;;;;;;;;;;;;
2023/11/14 05:57:32;;;;;;;16.40;4.40;;;;;;;8.70;100.00;98860.36;223901;1266;139462;-88
2023/11/14 06:03:06;;;;;;;14.70;6.50;;;;;;;8.67;100.00;98862.11;223828;1266;385406;-89
2023/11/14 06:08:37;;;;;;;20.60;6.50;;;;;;;8.66;100.00;98870.10;223464;1264;140774;-87
2023/11/14 06:14:38;;;;;;;15.10;5.80;;;;;;;8.68;100.00;98875.10;223822;1265;139063;-88
2023/11/14 06:20:39;;;;;;;16.20;4.70;;;;;;;8.69;100.00;98871.03;223320;1265;141003;-85
2023/11/14 06:26:32;;;;;;;22.20;4.40;;;;;;;8.70;100.00;98873.21;224042;1266;138472;-85
2023/11/14 06:32:33;;;;;;;15.10;5.70;;;;;;;8.72;100.00;98886.60;223430;1268;140738;-87
2023/11/14 06:38:16;;;;;;;23.20;7.10;;;;;;;8.76;100.00;98890.58;223455;1266;141108;-86
2023/11/14 06:43:51;;;;;;;19.90;6.70;;;;;;;8.80;100.00;98886.79;224031;1264;138434;-86
2023/11/14 06:49:38;;;;;;;22.30;6.60;;;;;;;8.86;100.00;98891.60;223343;1266;140855;-86
2023/11/14 06:55:37;;;;;;;;;;;;;;;;;;;;;
2023/11/14 07:01:29;;;;;;;;;;;;;;;;;;;;;
2023/11/14 07:13:14;;;;;;;16.30;3.60;;;;;;;9.07;100.00;98900.54;223950;1266;138420;-87
2023/11/14 07:19:08;;;;;;;16.50;3.90;;;;;;;9.13;100.00;98904.72;223379;1266;140900;-86
2023/11/14 07:25:09;;;;;;;19.60;3.60;;;;;;;9.22;100.00;98899.27;224053;1266;138947;-89
2023/11/14 07:31:09;;;;;;;21.70;4.70;;;;;;;9.29;100.00;98898.80;223471;1266;140780;-86
2023/11/14 07:37:09;;;;;;;;;;;;;;;;;;;;;
2023/11/14 07:43:12;;;;;;;19.30;4.30;;;;;;;9.44;100.00;98904.40;223602;1266;139435;-87
2023/11/14 07:49:12;;;;;;;17.10;3.40;;;;;;;9.55;100.00;98905.70;223493;1265;140359;-87
2023/11/14 07:54:57;;;;;;;24.70;4.30;;;;;;;9.62;100.00;98902.50;224038;1266;138426;-87
2023/11/14 08:00:56;;;;;;;14.60;4.30;;;;;;;9.67;100.00;98903.70;223461;1268;141054;-86
2023/11/14 08:06:57;;;;;;;23.70;4.40;;;;;;;9.72;100.00;98907.98;223896;1265;138669;-87
2023/11/14 08:12:58;;;;;;;22.30;5.50;;;;;;;9.78;100.00;98905.33;223364;1266;140490;-86
2023/11/14 08:18:51;;;;;;;;;;;;;;;;;;;;;
2023/11/14 08:24:44;;;;;;;16.30;4.00;;;;;;;9.85;100.00;98917.66;223813;1266;138608;-89
2023/11/14 08:30:39;;;;;;;;;;;;;;;;;;;;;
2023/11/14 08:36:34;;;;;;;20.90;5.30;;;;;;;9.95;100.00;98916.61;223990;1266;138845;-86
2023/11/14 08:42:36;;;;;;;13.30;3.40;;;;;;;9.99;100.00;98905.73;223440;1265;140510;-88
2023/11/14 08:48:30;;;;;;;24.40;5.40;;;;;;;10.07;100.00;98910.86;223508;1266;140353;-87
2023/11/14 08:54:31;;;;;;;;;;;;;;;;;;;;;
2023/11/14 09:00:26;;;;;;;;;;;;;;;;;;;;;
2023/11/14 09:05:52;;;;;;;20.50;5.20;;;;;;;10.37;100.00;98908.70;224029;1265;139199;-88
2023/11/14 09:11:30;;;;;;;;;;;;;;;;;;;;;
2023/11/14 09:17:33;;;;;;;25.10;5.00;;;;;;;10.61;100.00;98910.50;223874;1266;139606;-87
2023/11/14 09:23:23;;;;;;;;;;;;;;;;;;;;;
2023/11/14 09:29:25;;;;;;;18.10;3.50;;;;;;;10.90;100.00;98909.70;223459;1265;140269;-88
2023/11/14 09:35:21;;;;;;;25.30;4.20;;;;;;;11.01;100.00;98900.48;219872;1264;5398968;-89
2023/11/14 09:41:22;;;;;;;16.70;3.70;;;;;;;11.09;100.00;98904.85;223292;1267;141015;-88
2023/11/14 09:47:20;;;;;;;12.70;2.90;;;;;;;11.16;100.00;98907.96;223845;1265;139427;-86
2023/11/14 09:53:00;;;;;;;18.30;3.80;;;;;;;11.24;100.00;98900.91;223894;1266;139107;-86
2023/11/14 09:58:55;;;;;;;17.60;3.50;;;;;;;11.30;100.00;98892.64;223223;1268;140629;-84
2023/11/14 10:10:39;;;;;;;24.60;3.10;;;;;;;11.38;100.00;98890.45;223148;1268;140407;-85
2023/11/14 10:16:55;;;;;;;16.90;3.50;;;;;;;11.42;100.00;98878.50;224000;1268;140060;-86
2023/11/14 10:22:47;;;;;;;;;;;;;;;;;;;;;
2023/11/14 10:28:42;;;;;;;16.60;3.60;;;;;;;11.49;100.00;98872.77;223290;1268;141029;-87
2023/11/14 10:34:42;;;;;;;12.70;3.10;;;;;;;11.53;100.00;98872.24;223843;1268;139277;-86
2023/11/14 10:40:45;;;;;;;13.70;4.70;;;;;;;11.57;100.00;98870.44;223180;1268;140583;-86
2023/11/14 10:46:33;;;;;;;;;;;;;;;;;;;;;
2023/11/14 10:52:23;;;;;;;;;;;;;;;;;;;;;
2023/11/14 11:04:29;;;;;;;14.20;2.90;;;;;;;11.72;100.00;98861.07;223754;1267;141080;-85
2023/11/14 11:10:31;;;;;;;16.90;2.80;;;;;;;11.77;100.00;98858.36;223261;1267;140028;-85
2023/11/14 11:22:06;;;;;;;18.20;3.70;;;;;;;11.90;100.00;98851.04;223070;1268;140140;-88
2023/11/14 11:33:54;;;;;;;;;;;;;;;;;;;;;
2023/11/14 11:39:46;;;;;;;16.00;3.30;;;;;;;11.89;100.00;98846.86;223385;1265;140917;-85
2023/11/14 11:51:46;;;;;;;;;;;;;;;;;;;;;
2023/11/14 11:57:28;;;;;;;19.90;3.00;;;;;;;11.87;100.00;98829.83;224021;1267;95952;-82
2023/11/14 12:03:22;;;;;;;;;;;;;;;;;;;;;
2023/11/14 12:09:05;;;;;;;;;;;;;;;;;;;;;
2023/11/14 12:14:48;;;;;;;;;;;;;;;;;;;;;
2023/11/14 12:20:29;;;;;;;;;;;;;;;;;;;;;
2023/11/14 12:26:30;;;;;;;16.20;3.50;;;;;;;11.98;100.00;98815.42;223879;1266;138805;-85
2023/11/14 12:31:56;;;;;;;;;;;;;;;;;;;;;
2023/11/14 12:37:58;;;;;;;15.90;3.80;;;;;;;12.12;100.00;98803.40;223907;1265;139337;-87
2023/11/14 12:43:49;;;;;;;16.70;3.50;;;;;;;12.19;99.86;98804.58;223846;1265;139917;-85
2023/11/14 13:17:47;;;;;;;12.10;3.00;;;;;;;12.31;99.12;98787.00;223869;1266;139382;-86
2023/11/14 13:23:27;;;;;;;17.50;3.40;;;;;;;12.25;99.30;98789.71;223714;1265;139017;-85
2023/11/14 13:29:18;;;;;;;14.70;3.20;;;;;;;12.20;99.92;98787.23;223360;1265;140956;-85
2023/11/14 13:34:54;;;;;;;;;;;;;;;;;;;;;
2023/11/14 13:40:49;;;;;;;;;;;;;;;;;;;;;
2023/11/14 13:46:35;;;;;;;16.50;3.10;;;;;;;12.04;99.87;98776.73;223963;1266;139098;-85
2023/11/14 13:52:28;;;;;;;;;;;;;;;;;;;;;
2023/11/14 13:58:08;;;;;;;;;;;;;;;;;;;;;
2023/11/14 14:04:08;;;;;;;;;;;;;;;;;;;;;
2023/11/14 14:10:33;;;;;;;17.70;3.20;;;;;;;11.60;100.00;98837.50;223535;1265;140762;-85
2023/11/14 14:16:00;;;;;;;17.70;3.20;;;;;;;11.40;100.00;98838.23;223856;1265;96051;-89
2023/11/14 14:21:32;;;;;;;;;;;;;;;;;;;;;
2023/11/14 14:27:12;;;;;;;;;;;;;;;;;;;;;
2023/11/14 14:32:43;;;;;;;20.20;3.30;;;;;;;11.03;100.00;98831.95;223427;1266;138982;-87
2023/11/14 14:38:03;;;;;;;;;;;;;;;;;;;;;
2023/11/14 14:44:05;;;;;;;21.30;3.80;;;;;;;10.95;100.00;98822.34;223864;1265;138986;-88
2023/11/14 14:49:55;;;;;;;;;;;;;;;;;;;;;
2023/11/14 14:55:56;;;;;;;15.00;3.70;;;;;;;10.92;100.00;98830.95;223778;1265;138991;-85
2023/11/14 15:01:20;;;;;;;12.20;3.50;;;;;;;10.93;100.00;98827.09;223233;1265;141495;-86
2023/11/14 15:07:07;;;;;;;;;;;;;;;;;;;;;
2023/11/14 15:13:02;;;;;;;15.40;3.40;;;;;;;10.93;100.00;98840.29;223519;1265;140208;-84
2023/11/14 15:18:58;;;;;;;;;;;;;;;;;;;;;
2023/11/14 15:24:47;;;;;;;18.80;4.20;;;;;;;10.97;100.00;98848.02;223906;1265;139010;-85
2023/11/14 15:30:47;;;;;;;;;;;;;;;;;;;;;
2023/11/14 15:36:50;;;;;;;18.00;5.20;;;;;;;11.01;100.00;98850.63;223799;1265;139058;-85
2023/11/14 15:42:55;;;;;;;16.80;3.30;;;;;;;11.02;100.00;98861.77;223268;1265;140763;-84
2023/11/14 15:49:15;;;;;;;16.50;3.80;;;;;;;11.01;100.00;98855.89;223253;1266;141946;-84
2023/11/14 15:54:52;;;;;;;18.10;3.70;;;;;;;11.02;100.00;98854.31;223830;1265;139507;-85
2023/11/14 16:00:39;;;;;;;13.80;4.00;;;;;;;11.04;100.00;98853.41;223356;1265;141476;-86
2023/11/14 16:06:21;;;;;;;20.40;3.60;;;;;;;11.02;100.00;98850.36;223794;1266;139657;-83
2023/11/14 16:11:49;;;;;;;16.00;3.80;;;;;;;10.97;100.00;98852.11;223321;1265;140518;-83
2023/11/14 16:17:45;;;;;;;14.60;4.00;;;;;;;10.92;100.00;98848.80;223831;1264;139570;-83
2023/11/14 16:23:17;;;;;;;13.70;3.30;;;;;;;10.88;100.00;98845.88;223932;1265;138956;-83
2023/11/14 16:29:17;;;;;;;;;;;;;;;;;;;;;
2023/11/14 16:35:19;;;;;;;16.00;5.10;;;;;;;10.87;100.00;98851.08;223856;1266;139274;-85
2023/11/14 16:41:21;;;;;;;22.30;6.00;;;;;;;10.88;100.00;98845.17;223240;1265;141031;-83
2023/11/14 16:47:16;;;;;;;;;;;;;;;;;;;;;
2023/11/14 16:53:18;;;;;;;26.40;6.30;;;;;;;10.90;100.00;98840.73;223472;1265;222930;-84
2023/11/14 16:59:01;;;;;;;24.30;5.90;;;;;;;10.92;100.00;98845.42;223279;1265;140701;-84
2023/11/14 17:04:54;;;;;;;;;;;;;;;;;;;;;
2023/11/14 17:11:03;;;;;;;24.10;6.50;;;;;;;10.92;100.00;98847.94;223303;1265;142378;-83
2023/11/14 17:17:04;;;;;;;21.90;5.40;;;;;;;10.94;100.00;98841.22;223905;1265;138954;-83
2023/11/14 17:23:05;;;;;;;22.90;5.70;;;;;;;10.95;100.00;98847.72;223319;1265;142276;-84
2023/11/14 17:29:04;;;;;;;27.60;6.30;;;;;;;10.95;100.00;98853.40;223373;1265;140965;-84
2023/11/14 17:35:08;;;;;;;20.40;5.40;;;;;;;10.90;100.00;98848.67;223880;1265;139070;-83
2023/11/14 17:41:06;;;;;;;23.80;5.80;;;;;;;10.83;100.00;98859.16;223348;1265;140867;-83
2023/11/14 17:47:09;;;;;;;17.40;5.00;;;;;;;10.80;100.00;98857.56;223953;1265;139833;-84
2023/11/14 17:53:09;;;;;;;16.80;5.00;;;;;;;10.78;100.00;98853.11;223368;1265;140240;-83
2023/11/14 17:59:01;;;;;;;;;;;;;;;;;;;;;
2023/11/14 18:04:54;;;;;;;15.30;4.30;;;;;;;10.87;100.00;98849.59;223821;1265;139237;-83
2023/11/14 18:10:55;;;;;;;13.70;4.00;;;;;;;10.91;100.00;98847.71;223455;1265;140953;-83
2023/11/14 18:16:46;;;;;;;18.20;5.30;;;;;;;10.94;100.00;98856.16;224117;1265;95936;-83
2023/11/14 18:22:45;;;;;;;;;;;;;;;;;;;;;
2023/11/14 18:28:48;;;;;;;16.80;5.80;;;;;;;10.99;100.00;98861.20;223375;1265;142105;-85
2023/11/14 18:34:17;;;;;;;13.60;4.10;;;;;;;11.03;100.00;98858.21;223969;1264;111444;-83
2023/11/14 18:40:09;;;;;;;15.50;3.70;;;;;;;11.04;100.00;98853.80;223447;1265;141087;-85
2023/11/14 18:46:10;;;;;;;17.90;5.10;;;;;;;11.06;100.00;98849.61;223780;1265;139089;-85
2023/11/14 18:52:11;;;;;;;12.10;3.60;;;;;;;11.08;100.00;98847.77;223374;1265;140624;-85
2023/11/14 18:58:07;;;;;;;14.90;4.50;;;;;;;11.08;100.00;98843.35;223402;1265;141174;-85
2023/11/14 19:03:59;;;;;;;19.30;4.80;;;;;;;11.09;100.00;98844.13;223945;1265;138934;-83
2023/11/14 19:10:00;;;;;;;25.80;4.80;;;;;;;11.08;100.00;98841.71;223337;1265;140779;-84
2023/11/14 19:16:01;;;;;;;17.30;5.00;;;;;;;11.09;100.00;98842.95;223977;1265;138878;-84
2023/11/14 19:21:52;;;;;;;19.40;5.20;;;;;;;11.08;100.00;98841.47;223294;1268;140550;-84
2023/11/14 19:27:52;;;;;;;22.60;5.30;;;;;;;11.05;100.00;98844.20;223923;1265;138794;-85
2023/11/14 19:33:54;;;;;;;17.30;4.20;;;;;;;11.03;100.00;98838.88;223855;1265;139261;-85
2023/11/14 19:39:52;;;;;;;17.20;5.50;;;;;;;10.99;100.00;98835.95;223391;1265;140501;-84
2023/11/14 19:45:48;;;;;;;15.10;4.50;;;;;;;10.97;100.00;98837.40;223936;1265;138773;-84
2023/11/14 19:51:24;;;;;;;20.90;5.60;;;;;;;10.95;100.00;98834.45;223382;1268;140551;-84
2023/11/14 19:57:26;;;;;;;24.50;5.20;;;;;;;10.92;100.00;98833.32;223935;1265;139650;-86
2023/11/14 20:03:10;;;;;;;20.60;5.00;;;;;;;10.89;100.00;98832.56;223761;1265;384576;-85
2023/11/14 20:09:11;;;;;;;17.50;4.10;;;;;;;10.87;100.00;98826.31;223341;1265;140870;-86
2023/11/14 20:15:03;;;;;;;15.50;4.70;;;;;;;10.85;100.00;98831.62;223860;1265;138898;-85
2023/11/14 20:20:43;;;;;;;;;;;;;;;;;;;;;
2023/11/14 20:26:27;;;;;;;16.60;4.70;;;;;;;10.78;100.00;98834.79;223829;1268;138778;-85
2023/11/14 20:32:06;;;;;;;16.50;4.60;;;;;;;10.75;100.00;98841.27;223362;1265;141009;-84
2023/11/14 20:37:58;;;;;;;15.20;4.10;;;;;;;10.74;100.00;98842.33;223439;1265;140282;-86
2023/11/14 20:43:46;;;;;;;31.30;5.70;;;;;;;10.73;100.00;98839.66;223940;1265;138972;-84
2023/11/14 20:49:39;;;;;;;;;;;;;;;;;;;;;
2023/11/14 20:55:41;;;;;;;17.50;4.50;;;;;;;10.75;100.00;98837.89;223864;1265;138948;-85
2023/11/14 21:01:42;;;;;;;14.70;3.70;;;;;;;10.74;100.00;98837.38;223360;1265;140762;-85
2023/11/14 21:07:42;;;;;;;18.10;5.10;;;;;;;10.72;100.00;98835.19;223986;1265;139489;-84
2023/11/14 21:13:44;;;;;;;12.70;4.00;;;;;;;10.69;100.00;98839.17;223810;1265;138973;-85
2023/11/14 21:19:44;;;;;;;15.50;3.50;;;;;;;10.66;100.00;98842.90;223345;1265;141395;-83
2023/11/14 21:25:44;;;;;;;13.30;3.50;;;;;;;10.64;100.00;98843.41;223899;1265;139088;-84
2023/11/14 21:31:43;;;;;;;;;;;;;;;;;;;;;
2023/11/14 21:37:45;;;;;;;14.60;3.50;;;;;;;10.60;100.00;98847.33;219841;1266;5400661;-84
2023/11/14 21:43:46;;;;;;;18.50;4.70;;;;;;;10.56;100.00;98844.86;223891;1264;140319;-84
2023/11/14 21:49:47;;;;;;;15.70;4.20;;;;;;;10.52;100.00;98845.46;223306;1265;140765;-82
2023/11/14 21:55:48;;;;;;;14.60;3.40;;;;;;;10.49;100.00;98852.34;223967;1268;138981;-84
2023/11/14 22:01:50;;;;;;;15.60;3.70;;;;;;;10.46;100.00;98853.73;223286;1265;142103;-83
2023/11/14 22:07:51;;;;;;;12.10;3.40;;;;;;;10.43;100.00;98857.94;223907;1264;138953;-84
2023/11/14 22:13:44;;;;;;;;;;;;;;;;;;;;;
2023/11/14 22:19:29;;;;;;;;;;;;;;;;;;;;;
2023/11/14 22:25:32;;;;;;;10.60;3.10;;;;;;;10.37;100.00;98848.36;223956;1265;139347;-85
2023/11/14 22:31:10;;;;;;;16.30;4.00;;;;;;;10.34;100.00;98847.92;223338;1265;141458;-84
2023/11/14 22:36:54;;;;;;;13.60;3.50;;;;;;;10.30;100.00;98854.26;223969;1265;139767;-85
2023/11/14 22:42:39;;;;;;;14.90;3.10;;;;;;;10.26;100.00;98854.47;223510;1264;141276;-85
2023/11/14 22:48:39;;;;;;;13.40;3.30;;;;;;;10.21;100.00;98860.52;223348;1265;140996;-86
2023/11/14 22:54:33;;;;;;;;;;;;;;;;;;;;;
2023/11/14 23:00:48;;;;;;;12.40;3.20;;;;;;;10.15;100.00;98866.77;223423;1266;140824;-86
2023/11/14 23:06:42;;;;;;;16.10;3.50;;;;;;;10.16;100.00;98868.04;223858;1266;139501;-85
2023/11/14 23:12:35;;;;;;;13.90;3.60;;;;;;;10.14;100.00;98873.31;223468;1265;140756;-84
2023/11/14 23:18:26;;;;;;;18.70;4.50;;;;;;;10.12;100.00;98871.29;223560;1266;140593;-85
2023/11/14 23:24:27;;;;;;;13.60;4.10;;;;;;;10.11;100.00;98868.32;223856;1265;139455;-85
2023/11/14 23:30:28;;;;;;;11.60;3.60;;;;;;;10.10;100.00;98864.80;223496;1265;141698;-85
2023/11/14 23:36:38;;;;;;;11.50;3.80;;;;;;;10.09;100.00;98863.00;224044;1265;138936;-85
2023/11/14 23:42:39;;;;;;;;;;;;;;;;;;;;;
2023/11/14 23:48:33;;;;;;;19.70;4.20;;;;;;;10.07;100.00;98863.42;223419;1268;141021;-85
2023/11/14 23:54:15;;;;;;;14.20;3.20;;;;;;;10.06;100.00;98857.79;223943;1266;139011;-86
